createdAt,value
2022-11-19T00:01:36.733Z,2.62
2022-11-19T00:03:58.251Z,2.63
2022-11-19T00:06:22.218Z,2.54
2022-11-19T00:08:44.351Z,2.50
2022-11-19T00:11:37.163Z,2.63
2022-11-19T00:13:58.594Z,2.55
2022-11-19T00:16:20.044Z,2.51
2022-11-19T00:18:41.759Z,2.54
2022-11-19T00:21:12.235Z,2.43
2022-11-19T00:23:34.200Z,2.42
2022-11-19T00:25:55.677Z,2.37
2022-11-19T00:28:17.685Z,2.39
2022-11-19T00:30:47.899Z,2.38
2022-11-19T00:33:10.164Z,2.49
2022-11-19T00:35:32.346Z,2.38
2022-11-19T00:37:53.771Z,2.36
2022-11-19T00:40:15.338Z,2.45
2022-11-19T00:42:36.766Z,2.39
2022-11-19T00:44:58.210Z,2.44
2022-11-19T00:47:19.888Z,2.43
2022-11-19T00:49:41.349Z,2.44
2022-11-19T00:52:03.000Z,2.35
2022-11-19T00:54:24.484Z,2.34
2022-11-19T00:56:45.929Z,2.26
2022-11-19T00:59:07.622Z,2.27
2022-11-19T01:01:29.138Z,2.33
2022-11-19T01:03:51.146Z,2.36
2022-11-19T01:06:18.850Z,2.42
2022-11-19T01:08:40.970Z,2.58
2022-11-19T01:11:06.345Z,2.48
2022-11-19T01:13:36.586Z,2.35
2022-11-19T01:15:58.127Z,2.41
2022-11-19T01:18:19.673Z,2.40
2022-11-19T01:20:41.130Z,2.37
2022-11-19T01:23:02.569Z,2.37
2022-11-19T01:25:23.994Z,2.38
2022-11-19T01:27:45.418Z,2.32
2022-11-19T01:30:08.123Z,2.23
2022-11-19T01:32:29.579Z,2.18
2022-11-19T01:34:53.059Z,2.17
2022-11-19T01:37:14.480Z,2.02
2022-11-19T01:39:35.933Z,2.19
2022-11-19T01:41:57.416Z,2.08
2022-11-19T01:44:56.214Z,2.09
2022-11-19T01:47:17.686Z,2.15
2022-11-19T01:49:39.174Z,2.25
2022-11-19T01:52:03.135Z,2.17
2022-11-19T01:54:38.646Z,2.45
2022-11-19T01:57:04.738Z,2.33
2022-11-19T01:59:27.209Z,2.36
2022-11-19T02:01:48.708Z,2.44
2022-11-19T02:04:11.920Z,2.37
2022-11-19T02:06:33.878Z,2.33
2022-11-19T02:08:55.463Z,2.37
2022-11-19T02:11:30.072Z,2.22
2022-11-19T02:14:03.556Z,2.31
2022-11-19T02:16:34.370Z,2.36
2022-11-19T02:19:09.969Z,2.36
2022-11-19T02:21:36.775Z,2.17
2022-11-19T02:24:33.035Z,2.21
2022-11-19T02:27:16.951Z,2.19
2022-11-19T02:29:57.125Z,2.19
2022-11-19T02:32:30.787Z,2.26
2022-11-19T02:35:10.054Z,2.40
2022-11-19T02:37:47.297Z,2.34
2022-11-19T02:40:26.145Z,2.26
2022-11-19T02:42:57.870Z,2.36
2022-11-19T02:45:35.079Z,2.38
2022-11-19T02:48:03.340Z,2.31
2022-11-19T02:50:39.779Z,2.26
2022-11-19T02:53:04.275Z,2.41
2022-11-19T02:55:27.455Z,2.34
2022-11-19T02:58:01.474Z,2.23
2022-11-19T03:00:41.889Z,2.20
2022-11-19T03:03:29.705Z,2.24
2022-11-19T03:05:56.697Z,2.36
2022-11-19T03:08:18.782Z,2.49
2022-11-19T03:10:58.266Z,2.49
2022-11-19T03:14:05.152Z,2.46
2022-11-19T03:16:43.253Z,2.51
2022-11-19T03:19:38.617Z,2.32
2022-11-19T03:22:07.424Z,2.24
2022-11-19T03:24:34.181Z,2.36
2022-11-19T03:26:58.325Z,2.25
2022-11-19T03:29:22.598Z,2.18
2022-11-19T03:31:49.752Z,2.22
2022-11-19T03:34:16.673Z,2.14
2022-11-19T03:36:40.968Z,2.12
2022-11-19T03:39:07.527Z,2.00
2022-11-19T03:41:30.852Z,2.09
2022-11-19T03:43:58.363Z,2.10
2022-11-19T03:46:21.694Z,2.01
2022-11-19T03:48:47.224Z,1.86
2022-11-19T03:51:16.194Z,2.12
2022-11-19T03:53:37.753Z,2.18
2022-11-19T03:56:03.918Z,2.05
2022-11-19T03:58:26.745Z,1.93
2022-11-19T04:00:48.193Z,1.87
2022-11-19T04:03:09.641Z,2.03
2022-11-19T04:05:31.117Z,2.03
2022-11-19T04:07:52.577Z,1.81
2022-11-19T04:10:14.341Z,1.85
2022-11-19T04:12:35.798Z,1.94
2022-11-19T04:14:57.230Z,1.89
2022-11-19T04:17:19.968Z,1.80
2022-11-19T04:19:41.749Z,1.92
2022-11-19T04:22:03.358Z,1.87
2022-11-19T04:24:24.842Z,1.86
2022-11-19T04:26:46.312Z,2.03
2022-11-19T04:29:07.915Z,2.07
2022-11-19T04:31:29.423Z,2.01
2022-11-19T04:33:50.867Z,2.17
2022-11-19T04:36:12.310Z,2.15
2022-11-19T04:38:34.814Z,2.15
2022-11-19T04:40:56.244Z,2.10
2022-11-19T04:43:17.660Z,2.30
2022-11-19T04:45:39.122Z,2.29
2022-11-19T04:48:00.568Z,2.39
2022-11-19T04:50:22.059Z,2.34
2022-11-19T04:52:43.491Z,2.40
2022-11-19T04:55:05.226Z,2.30
2022-11-19T04:57:26.649Z,2.35
2022-11-19T04:59:48.115Z,2.37
2022-11-19T05:02:09.587Z,2.51
2022-11-19T05:04:31.033Z,2.61
2022-11-19T05:06:52.471Z,2.62
2022-11-19T05:09:13.912Z,2.70
2022-11-19T05:11:35.436Z,2.74
2022-11-19T05:13:56.900Z,2.74
2022-11-19T05:16:18.465Z,2.51
2022-11-19T05:18:40.138Z,2.35
2022-11-19T05:21:01.622Z,2.18
2022-11-19T05:23:23.117Z,2.29
2022-11-19T05:25:44.596Z,2.33
2022-11-19T05:28:06.134Z,2.41
2022-11-19T05:30:27.838Z,2.56
2022-11-19T05:32:49.378Z,2.64
2022-11-19T05:35:10.869Z,2.63
2022-11-19T05:37:32.382Z,2.61
2022-11-19T05:39:53.932Z,2.50
2022-11-19T05:42:15.416Z,2.52
2022-11-19T05:44:36.956Z,2.61
2022-11-19T05:46:59.767Z,2.67
2022-11-19T05:49:21.439Z,2.66
2022-11-19T05:51:43.125Z,2.57
2022-11-19T05:54:04.659Z,2.55
2022-11-19T05:56:26.118Z,2.59
2022-11-19T05:58:47.567Z,2.65
2022-11-19T06:01:09.147Z,2.73
2022-11-19T06:03:31.304Z,2.79
2022-11-19T06:05:52.869Z,2.97
2022-11-19T06:08:14.276Z,2.98
2022-11-19T06:10:35.742Z,3.02
2022-11-19T06:12:57.261Z,2.98
2022-11-19T06:15:18.770Z,3.05
2022-11-19T06:17:40.327Z,3.00
2022-11-19T06:20:01.933Z,2.84
2022-11-19T06:22:23.872Z,2.85
2022-11-19T06:24:45.360Z,2.82
2022-11-19T06:27:06.801Z,2.73
2022-11-19T06:29:28.341Z,2.78
2022-11-19T06:31:49.766Z,2.69
2022-11-19T06:34:11.244Z,2.66
2022-11-19T06:36:38.934Z,2.61
2022-11-19T06:39:03.006Z,2.59
2022-11-19T06:41:24.485Z,2.48
2022-11-19T06:43:46.017Z,2.44
2022-11-19T06:46:07.468Z,2.52
2022-11-19T06:48:28.912Z,2.39
2022-11-19T06:50:50.859Z,2.39
2022-11-19T06:53:13.146Z,2.40
2022-11-19T06:55:34.583Z,2.50
2022-11-19T06:57:57.652Z,2.55
2022-11-19T07:00:19.195Z,2.44
2022-11-19T07:02:41.097Z,2.40
2022-11-19T07:05:02.578Z,2.38
2022-11-19T07:07:24.103Z,2.46
2022-11-19T07:09:45.584Z,2.53
2022-11-19T07:12:07.848Z,2.52
2022-11-19T07:14:29.292Z,2.48
2022-11-19T07:16:50.758Z,2.50
2022-11-19T07:19:12.265Z,2.49
2022-11-19T07:21:33.952Z,2.44
2022-11-19T07:23:56.910Z,2.47
2022-11-19T07:26:18.482Z,2.53
2022-11-19T07:28:39.903Z,2.62
2022-11-19T07:31:05.626Z,2.64
2022-11-19T07:33:27.068Z,2.64
2022-11-19T07:35:48.504Z,2.76
2022-11-19T07:38:09.944Z,2.67
2022-11-19T07:40:33.192Z,2.54
2022-11-19T07:42:54.635Z,2.57
2022-11-19T07:45:18.466Z,2.57
2022-11-19T07:47:39.927Z,2.54
2022-11-19T07:50:01.636Z,2.55
2022-11-19T07:52:23.104Z,2.48
2022-11-19T07:54:44.531Z,2.51
2022-11-19T07:57:05.955Z,2.49
2022-11-19T07:59:27.420Z,2.52
2022-11-19T08:01:48.889Z,2.37
2022-11-19T08:04:10.941Z,2.30
2022-11-19T08:06:34.615Z,2.33
2022-11-19T08:08:56.835Z,2.42
2022-11-19T08:11:18.868Z,2.42
2022-11-19T08:13:40.548Z,2.50
2022-11-19T08:16:04.543Z,2.31
2022-11-19T08:18:30.919Z,2.29
2022-11-19T08:20:52.721Z,2.38
2022-11-19T08:23:14.921Z,2.35
2022-11-19T08:25:37.281Z,2.31
2022-11-19T08:27:58.696Z,2.37
2022-11-19T08:30:20.126Z,2.52
2022-11-19T08:32:41.535Z,2.64
2022-11-19T08:35:03.057Z,2.65
2022-11-19T08:37:24.479Z,2.48
2022-11-19T08:39:45.951Z,2.34
2022-11-19T08:42:27.950Z,2.43
2022-11-19T08:44:49.480Z,2.38
2022-11-19T08:47:11.010Z,2.47
2022-11-19T08:49:32.471Z,2.51
2022-11-19T08:51:53.967Z,2.40
2022-11-19T08:54:15.482Z,2.41
2022-11-19T08:56:36.921Z,2.44
2022-11-19T08:59:02.496Z,2.59
2022-11-19T09:01:24.526Z,2.46
2022-11-19T09:03:46.078Z,2.37
2022-11-19T09:06:08.343Z,2.43
2022-11-19T09:08:30.467Z,2.66
2022-11-19T09:10:51.911Z,2.69
2022-11-19T09:13:13.365Z,2.65
2022-11-19T09:15:35.537Z,2.85
2022-11-19T09:17:57.019Z,2.85
2022-11-19T09:20:18.451Z,3.05
2022-11-19T09:22:39.912Z,3.00
2022-11-19T09:25:01.501Z,3.00
2022-11-19T09:27:22.931Z,2.85
2022-11-19T09:29:44.387Z,3.05
2022-11-19T09:32:05.807Z,3.29
2022-11-19T09:34:27.465Z,3.14
2022-11-19T09:36:48.906Z,2.99
2022-11-19T09:39:11.184Z,2.92
2022-11-19T09:41:47.446Z,2.72
2022-11-19T09:44:26.568Z,2.55
2022-11-19T09:47:12.876Z,2.63
2022-11-19T09:49:41.670Z,2.69
2022-11-19T09:52:10.528Z,2.79
2022-11-19T09:54:32.639Z,2.90
2022-11-19T09:56:59.188Z,2.86
2022-11-19T09:59:28.406Z,2.70
2022-11-19T10:01:49.839Z,2.80
2022-11-19T10:04:12.297Z,2.72
2022-11-19T10:06:56.992Z,2.67
2022-11-19T10:09:43.494Z,2.66
2022-11-19T10:12:10.698Z,2.84
2022-11-19T10:15:02.789Z,2.70
2022-11-19T10:17:49.055Z,2.83
2022-11-19T10:20:19.535Z,2.98
2022-11-19T10:23:02.037Z,2.81
2022-11-19T10:25:28.352Z,2.90
2022-11-19T10:28:00.271Z,2.96
2022-11-19T10:30:25.239Z,3.10
2022-11-19T10:32:59.214Z,2.98
2022-11-19T10:35:28.782Z,2.86
2022-11-19T10:37:59.799Z,2.95
2022-11-19T10:40:24.008Z,2.94
2022-11-19T10:42:51.966Z,2.99
2022-11-19T10:45:25.436Z,3.07
2022-11-19T10:48:09.339Z,2.98
2022-11-19T10:50:31.246Z,2.91
2022-11-19T10:52:55.893Z,2.91
2022-11-19T10:55:28.575Z,2.99
2022-11-19T10:58:03.004Z,3.12
2022-11-19T11:00:24.470Z,3.07
2022-11-19T11:02:51.941Z,3.16
2022-11-19T11:05:18.719Z,3.27
2022-11-19T11:07:52.702Z,3.26
2022-11-19T11:10:29.574Z,3.18
2022-11-19T11:13:10.572Z,3.16
2022-11-19T11:15:32.083Z,3.40
2022-11-19T11:18:08.971Z,3.32
2022-11-19T11:20:31.412Z,3.09
2022-11-19T11:23:23.280Z,3.08
2022-11-19T11:26:08.583Z,3.07
2022-11-19T11:28:30.021Z,2.94
2022-11-19T11:31:01.870Z,2.73
2022-11-19T11:33:41.169Z,2.69
2022-11-19T11:36:10.209Z,2.66
2022-11-19T11:38:32.372Z,2.55
2022-11-19T11:44:03.778Z,2.65
2022-11-19T11:46:25.257Z,2.66
2022-11-19T11:48:49.166Z,2.80
2022-11-19T11:51:42.104Z,3.05
2022-11-19T11:54:06.020Z,2.88
2022-11-19T11:56:27.471Z,2.87
2022-11-19T11:58:48.911Z,2.75
2022-11-19T12:01:15.873Z,2.69
2022-11-19T12:03:55.552Z,2.67
2022-11-19T12:06:18.844Z,2.52
2022-11-19T12:08:58.102Z,2.47
2022-11-19T12:11:26.707Z,2.45
2022-11-19T12:14:02.124Z,2.30
2022-11-19T12:17:00.027Z,2.26
2022-11-19T12:19:45.324Z,2.30
2022-11-19T12:22:09.841Z,2.35
2022-11-19T12:24:48.187Z,2.35
2022-11-19T12:27:28.784Z,2.48
2022-11-19T12:30:20.621Z,2.37
2022-11-19T12:32:48.571Z,2.25
2022-11-19T12:35:23.766Z,2.13
2022-11-19T12:38:12.555Z,2.03
2022-11-19T12:40:42.327Z,1.99
2022-11-19T12:43:28.040Z,2.05
2022-11-19T12:45:55.664Z,1.93
2022-11-19T12:48:32.349Z,1.97
2022-11-19T12:51:05.254Z,1.94
2022-11-19T12:53:51.860Z,2.01
2022-11-19T12:56:30.698Z,1.81
2022-11-19T12:59:17.473Z,1.81
2022-11-19T13:01:43.948Z,1.72
2022-11-19T13:04:20.972Z,1.72
2022-11-19T13:06:42.359Z,1.82
2022-11-19T13:09:08.843Z,1.96
2022-11-19T13:12:02.271Z,2.04
2022-11-19T13:14:32.556Z,2.02
2022-11-19T13:16:55.796Z,2.03
2022-11-19T13:19:25.772Z,2.03
2022-11-19T13:21:57.406Z,2.20
2022-11-19T13:24:37.570Z,2.16
2022-11-19T13:27:04.416Z,2.22
2022-11-19T13:29:36.391Z,2.15
2022-11-19T13:32:34.685Z,1.93
2022-11-19T13:35:14.187Z,1.94
2022-11-19T13:37:45.664Z,1.75
2022-11-19T13:40:24.920Z,1.79
2022-11-19T13:43:30.665Z,1.75
2022-11-19T13:45:53.538Z,1.68
2022-11-19T13:48:29.393Z,1.72
2022-11-19T13:50:53.929Z,1.86
2022-11-19T13:53:39.292Z,1.97
2022-11-19T13:56:01.088Z,2.02
2022-11-19T13:58:37.741Z,2.26
2022-11-19T14:01:06.798Z,2.25
2022-11-19T14:03:32.198Z,2.07
2022-11-19T14:05:56.371Z,2.32
2022-11-19T14:08:47.693Z,2.19
2022-11-19T14:11:52.277Z,1.92
2022-11-19T14:14:48.591Z,1.94
2022-11-19T14:17:44.225Z,1.97
2022-11-19T14:21:03.215Z,2.12
2022-11-19T14:24:41.873Z,2.12
2022-11-19T14:27:17.258Z,2.12
2022-11-19T14:29:44.357Z,2.07
2022-11-19T14:32:06.266Z,2.13
2022-11-19T14:34:30.993Z,2.19
2022-11-19T14:36:54.130Z,2.32
2022-11-19T14:39:22.379Z,2.34
2022-11-19T14:41:44.925Z,2.26
2022-11-19T14:44:11.517Z,2.36
2022-11-19T14:46:32.914Z,2.41
2022-11-19T14:49:00.160Z,2.38
2022-11-19T14:51:40.454Z,2.49
2022-11-19T14:54:28.523Z,2.42
2022-11-19T14:57:03.760Z,2.37
2022-11-19T14:59:29.351Z,2.36
2022-11-19T15:02:21.563Z,2.14
2022-11-19T15:04:51.567Z,2.12
2022-11-19T15:07:25.089Z,2.21
2022-11-19T15:10:14.151Z,2.05
2022-11-19T15:12:44.771Z,2.02
2022-11-19T15:15:21.263Z,1.80
2022-11-19T15:17:43.846Z,1.57
2022-11-19T15:20:05.243Z,1.62
2022-11-19T15:22:48.793Z,1.54
2022-11-19T15:25:23.775Z,1.61
2022-11-19T15:27:52.419Z,1.46
2022-11-19T15:30:22.951Z,1.25
2022-11-19T15:33:16.805Z,1.18
2022-11-19T15:36:11.048Z,1.01
2022-11-19T15:38:44.963Z,1.09
2022-11-19T15:41:07.568Z,1.18
2022-11-19T15:43:43.347Z,0.97
2022-11-19T15:46:10.740Z,1.01
2022-11-19T15:48:42.810Z,0.93
2022-11-19T15:51:06.726Z,0.98
2022-11-19T15:53:28.310Z,0.70
2022-11-19T15:55:53.789Z,0.46
2022-11-19T15:58:20.244Z,0.32
2022-11-19T16:00:47.692Z,0.15
2022-11-19T16:03:10.381Z,0.18
2022-11-19T16:05:32.866Z,0.28
2022-11-19T16:07:54.574Z,0.04
2022-11-19T16:10:29.091Z,-0.27
2022-11-19T16:13:22.852Z,-0.27
2022-11-19T16:16:11.031Z,-0.26
2022-11-19T16:18:32.452Z,-0.17
2022-11-19T16:20:54.014Z,-0.36
2022-11-19T16:23:20.800Z,-0.42
2022-11-19T16:25:43.475Z,-0.34
2022-11-19T16:28:07.860Z,-0.34
2022-11-19T16:30:39.009Z,-0.22
2022-11-19T16:33:01.383Z,-0.37
2022-11-19T16:35:24.698Z,-0.38
2022-11-19T16:37:48.287Z,-0.48
2022-11-19T16:40:15.768Z,-0.47
2022-11-19T16:42:37.190Z,-0.52
2022-11-19T16:45:14.701Z,-0.61
2022-11-19T16:47:49.840Z,-0.92
2022-11-19T16:50:28.504Z,-0.87
2022-11-19T16:52:49.980Z,-1.07
2022-11-19T16:55:23.701Z,-1.07
2022-11-19T16:57:49.858Z,-1.09
2022-11-19T17:00:22.772Z,-1.18
2022-11-19T17:02:44.796Z,-1.16
2022-11-19T17:05:09.917Z,-1.45
2022-11-19T17:07:31.573Z,-1.62
2022-11-19T17:10:30.236Z,-1.78
2022-11-19T17:13:17.339Z,-1.56
2022-11-19T17:15:40.063Z,-1.52
2022-11-19T17:18:10.290Z,-1.67
2022-11-19T17:20:32.140Z,-1.97
2022-11-19T17:22:54.114Z,-1.96
2022-11-19T17:25:20.036Z,-1.82
2022-11-19T17:27:41.530Z,-1.78
2022-11-19T17:30:29.061Z,-1.70
2022-11-19T17:32:56.739Z,-1.61
2022-11-19T17:35:38.621Z,-1.60
2022-11-19T17:38:08.814Z,-1.78
2022-11-19T17:40:30.300Z,-1.95
2022-11-19T17:43:10.522Z,-2.12
2022-11-19T17:45:31.948Z,-2.23
2022-11-19T17:47:53.414Z,-2.44
2022-11-19T17:50:15.596Z,-2.32
2022-11-19T17:52:37.122Z,-2.17
2022-11-19T17:55:11.311Z,-2.09
2022-11-19T17:57:32.849Z,-1.99
2022-11-19T17:59:54.357Z,-2.21
2022-11-19T18:02:18.512Z,-2.21
2022-11-19T18:04:41.756Z,-2.05
2022-11-19T18:07:03.288Z,-2.00
2022-11-19T18:09:24.766Z,-2.21
2022-11-19T18:11:46.422Z,-2.32
2022-11-19T18:14:09.998Z,-2.34
2022-11-19T18:16:35.681Z,-2.57
2022-11-19T18:18:57.153Z,-2.37
2022-11-19T18:21:21.175Z,-2.35
2022-11-19T18:23:44.372Z,-2.32
2022-11-19T18:26:06.094Z,-2.50
2022-11-19T18:28:27.652Z,-2.82
2022-11-19T18:30:49.238Z,-3.12
2022-11-19T18:33:11.326Z,-3.07
2022-11-19T18:35:33.119Z,-3.18
2022-11-19T18:37:54.584Z,-3.16
2022-11-19T18:40:16.229Z,-3.41
2022-11-19T18:42:38.466Z,-3.32
2022-11-19T18:44:59.959Z,-3.39
2022-11-19T18:47:23.376Z,-3.49
2022-11-19T18:49:44.843Z,-3.59
2022-11-19T18:52:11.186Z,-3.26
2022-11-19T18:54:33.445Z,-3.23
2022-11-19T18:56:55.365Z,-3.47
2022-11-19T18:59:17.027Z,-3.62
2022-11-19T19:01:38.983Z,-3.80
2022-11-19T19:04:00.532Z,-3.75
2022-11-19T19:06:24.490Z,-3.47
2022-11-19T19:08:46.671Z,-3.69
2022-11-19T19:11:27.228Z,-3.82
2022-11-19T19:13:48.655Z,-3.74
2022-11-19T19:16:11.100Z,-3.57
2022-11-19T19:18:32.634Z,-3.42
2022-11-19T19:20:54.121Z,-3.30
2022-11-19T19:23:15.632Z,-3.41
2022-11-19T19:25:37.138Z,-3.62
2022-11-19T19:27:58.640Z,-3.79
2022-11-19T19:30:20.114Z,-3.86
2022-11-19T19:32:41.612Z,-3.71
2022-11-19T19:35:03.489Z,-3.70
2022-11-19T19:37:25.144Z,-3.53
2022-11-19T19:39:46.845Z,-3.74
2022-11-19T19:42:08.337Z,-4.01
2022-11-19T19:44:29.866Z,-4.12
2022-11-19T19:46:51.358Z,-3.83
2022-11-19T19:49:12.833Z,-4.05
2022-11-19T19:51:34.330Z,-4.30
2022-11-19T19:53:56.103Z,-4.66
2022-11-19T19:56:23.490Z,-4.87
2022-11-19T19:58:46.269Z,-4.77
2022-11-19T20:01:09.995Z,-4.62
2022-11-19T20:03:31.675Z,-4.55
2022-11-19T20:05:53.191Z,-4.72
2022-11-19T20:08:14.628Z,-4.84
2022-11-19T20:10:36.114Z,-5.07
2022-11-19T20:13:16.289Z,-4.78
2022-11-19T20:15:40.081Z,-4.86
2022-11-19T20:18:01.668Z,-5.01
2022-11-19T20:20:23.133Z,-5.14
2022-11-19T20:22:44.565Z,-5.15
2022-11-19T20:25:06.598Z,-5.11
2022-11-19T20:27:28.112Z,-4.92
2022-11-19T20:29:49.537Z,-4.75
2022-11-19T20:32:11.012Z,-4.69
2022-11-19T20:34:32.532Z,-4.51
2022-11-19T20:36:54.008Z,-4.47
2022-11-19T20:39:15.423Z,-4.49
2022-11-19T20:41:55.650Z,-4.31
2022-11-19T20:44:21.689Z,-4.32
2022-11-19T20:46:44.515Z,-4.39
2022-11-19T20:49:06.494Z,-4.65
2022-11-19T20:51:27.963Z,-4.48
2022-11-19T20:53:49.577Z,-4.56
2022-11-19T20:56:13.393Z,-4.48
2022-11-19T20:58:35.066Z,-4.39
2022-11-19T21:01:10.466Z,-4.59
2022-11-19T21:03:33.891Z,-4.91
2022-11-19T21:06:00.162Z,-5.06
2022-11-19T21:08:21.671Z,-4.77
2022-11-19T21:10:43.169Z,-4.73
2022-11-19T21:13:04.852Z,-4.61
2022-11-19T21:15:26.384Z,-4.68
2022-11-19T21:17:47.896Z,-4.81
2022-11-19T21:20:09.672Z,-5.01
2022-11-19T21:22:31.128Z,-5.04
2022-11-19T21:24:53.064Z,-4.84
2022-11-19T21:27:15.251Z,-4.71
2022-11-19T21:29:38.537Z,-4.73
2022-11-19T21:31:59.976Z,-4.60
2022-11-19T21:34:21.527Z,-4.66
2022-11-19T21:36:43.986Z,-4.82
2022-11-19T21:39:06.198Z,-5.08
2022-11-19T21:41:27.749Z,-5.11
2022-11-19T21:43:49.823Z,-5.18
2022-11-19T21:46:11.521Z,-5.16
2022-11-19T21:48:33.063Z,-5.44
2022-11-19T21:50:54.618Z,-5.37
2022-11-19T21:53:17.538Z,-5.44
2022-11-19T21:55:39.165Z,-5.58
2022-11-19T21:58:05.103Z,-5.35
2022-11-19T22:00:26.680Z,-5.48
2022-11-19T22:02:48.263Z,-5.34
2022-11-19T22:05:10.367Z,-5.10
2022-11-19T22:07:31.852Z,-5.04
2022-11-19T22:09:53.348Z,-4.96
2022-11-19T22:12:15.052Z,-5.00
2022-11-19T22:14:36.565Z,-5.16
2022-11-19T22:16:58.001Z,-5.00
2022-11-19T22:19:19.694Z,-4.86
2022-11-19T22:21:41.456Z,-5.07
2022-11-19T22:24:03.779Z,-5.24
2022-11-19T22:26:25.793Z,-5.34
2022-11-19T22:28:47.227Z,-5.31
2022-11-19T22:31:08.985Z,-5.20
2022-11-19T22:33:32.095Z,-5.39
2022-11-19T22:35:58.154Z,-5.31
2022-11-19T22:38:20.008Z,-5.43
2022-11-19T22:40:41.533Z,-5.51
2022-11-19T22:43:03.186Z,-5.44
2022-11-19T22:45:24.712Z,-5.48
2022-11-19T22:47:46.166Z,-5.55
2022-11-19T22:50:08.126Z,-5.63
2022-11-19T22:52:29.771Z,-5.61
2022-11-19T22:54:51.219Z,-5.78
2022-11-19T22:57:12.802Z,-5.95
2022-11-19T22:59:34.303Z,-6.09
2022-11-19T23:01:55.760Z,-6.04
2022-11-19T23:04:17.418Z,-5.90
2022-11-19T23:06:38.884Z,-5.54
2022-11-19T23:09:01.463Z,-5.31
2022-11-19T23:11:42.438Z,-5.13
2022-11-19T23:14:04.227Z,-5.03
2022-11-19T23:16:26.399Z,-4.95
2022-11-19T23:18:51.112Z,-4.98
2022-11-19T23:21:21.804Z,-4.90
2022-11-19T23:23:43.702Z,-5.04
2022-11-19T23:26:07.082Z,-5.23
2022-11-19T23:28:30.807Z,-5.36
2022-11-19T23:30:53.045Z,-5.13
2022-11-19T23:33:14.530Z,-4.99
2022-11-19T23:35:36.121Z,-5.03
2022-11-19T23:37:57.551Z,-5.18
2022-11-19T23:40:19.039Z,-5.28
2022-11-19T23:42:40.553Z,-5.04
2022-11-19T23:45:02.003Z,-5.24
2022-11-19T23:47:23.428Z,-5.20
2022-11-19T23:49:44.899Z,-5.16
2022-11-19T23:52:06.364Z,-5.13
2022-11-19T23:54:27.873Z,-5.11
2022-11-19T23:56:49.544Z,-4.96
2022-11-19T23:59:11.084Z,-4.81
